Time;durP1;ratioP1;P1;durP2;ratioP2;P2;SDS_P1;SDS_P2;PMS_P1;PMS_P2;Temp;Humidity;BMP_temperature;BMP_pressure;BME280_temperature;BME280_humidity;BME280_pressure;Samples;Min_cycle;Max_cycle;Signal;HPM_P1;HPM_P2
2023/06/08 00:02:08;;;;;;;5.83;4.70;;;;;;;16.80;100.00;-10185.59;6245214;23;20215;-58
2023/06/08 00:04:35;;;;;;;5.20;4.80;;;;;;;16.76;100.00;-10185.19;6245483;23;20259;-58
2023/06/08 00:07:04;;;;;;;7.40;5.00;;;;;;;16.84;100.00;-7933.00;6245360;23;20487;-58
2023/06/08 00:09:31;;;;;;;6.50;4.47;;;;;;;16.85;100.00;-8898.88;6245302;23;20157;-58
2023/06/08 00:11:58;;;;;;;5.10;4.60;;;;;;;16.86;100.00;-11794.63;6245399;23;20157;-59
2023/06/08 00:14:25;;;;;;;4.80;4.50;;;;;;;16.82;100.00;-13401.69;6244852;23;20184;-59
2023/06/08 00:16:53;;;;;;;5.03;4.73;;;;;;;16.88;100.00;-14688.22;6245112;23;20238;-59
2023/06/08 00:19:20;;;;;;;5.20;4.90;;;;;;;16.96;100.00;-14689.56;6244250;23;20161;-59
2023/06/08 00:21:49;;;;;;;6.40;4.33;;;;;;;16.92;100.00;-12438.66;6245240;23;20167;-59
2023/06/08 00:24:19;;;;;;;5.17;4.70;;;;;;;16.80;100.00;-9863.84;6245156;23;20226;-59
2023/06/08 00:26:46;;;;;;;5.90;5.33;;;;;;;16.70;100.00;-8575.72;6244930;23;20157;-58
2023/06/08 00:29:13;;;;;;;6.20;5.57;;;;;;;16.65;100.00;-6965.88;6244754;23;20156;-58
2023/06/08 00:31:40;;;;;;;6.73;5.67;;;;;;;16.64;100.00;-6643.81;6244711;23;20157;-58
2023/06/08 00:34:08;;;;;;;6.30;5.90;;;;;;;16.55;100.00;-7287.19;6244697;23;20167;-59
2023/06/08 00:36:36;;;;;;;11.30;5.97;;;;;;;16.48;100.00;-8573.84;6244552;23;20177;-57
2023/06/08 00:39:04;;;;;;;12.80;6.07;;;;;;;16.28;100.00;-7928.91;6244673;23;20157;-59
2023/06/08 00:41:31;;;;;;;7.47;6.17;;;;;;;16.21;100.00;-10500.53;6245113;23;20682;-59
2023/06/08 00:43:58;;;;;;;6.40;5.80;;;;;;;16.17;100.00;-10178.69;6244536;23;20536;-58
2023/06/08 00:46:30;;;;;;;6.73;5.90;;;;;;;16.22;100.00;-10179.31;6244557;23;20568;-59
2023/06/08 00:48:58;;;;;;;5.70;4.83;;;;;;;16.23;100.00;-10500.78;6244933;23;20533;-57
2023/06/08 00:51:27;;;;;;;5.47;5.17;;;;;;;16.25;100.00;-9858.16;6244880;23;20600;-58
2023/06/08 00:53:56;;;;;;;5.90;5.57;;;;;;;16.21;100.00;-8893.22;6244518;23;20161;-58
2023/06/08 00:56:26;;;;;;;5.70;5.23;;;;;;;16.10;100.00;-8892.25;6244468;23;20181;-58
2023/06/08 00:58:55;;;;;;;9.77;5.17;;;;;;;16.10;100.00;-7927.59;6244571;23;20168;-58
2023/06/08 01:01:24;;;;;;;6.30;5.77;;;;;;;16.05;100.00;-8248.75;6244779;23;20168;-58
2023/06/08 01:03:55;;;;;;;5.27;4.93;;;;;;;16.03;100.00;-7927.06;6244847;23;20635;-59
2023/06/08 01:06:22;;;;;;;5.63;5.33;;;;;;;15.76;100.00;-8889.25;6244468;23;20159;-58
2023/06/08 01:08:59;;;;;;;6.43;5.57;;;;;;;15.76;100.00;-10495.41;6218043;23;20592;-58
2023/06/08 01:11:38;;;;;;;5.87;5.47;;;;;;;15.82;100.00;-11138.47;6244726;23;20535;-58
2023/06/08 01:14:15;;;;;;;6.60;5.77;;;;;;;15.69;100.00;-12420.84;6244356;23;20164;-59
2023/06/08 01:16:49;;;;;;;5.63;5.17;;;;;;;15.67;100.00;-12741.47;6244260;23;20196;-58
2023/06/08 01:19:28;;;;;;;4.87;4.67;;;;;;;15.74;100.00;-12421.56;6244678;23;20238;-59
2023/06/08 01:22:12;;;;;;;7.33;5.10;;;;;;;15.57;100.00;-12098.19;6244514;23;20191;-59
2023/06/08 01:24:49;;;;;;;7.00;4.97;;;;;;;15.46;100.00;-12417.47;6244367;23;20153;-58
2023/06/08 01:27:17;;;;;;;5.47;4.97;;;;;;;15.35;100.00;-13377.97;6244522;23;20153;-58
2023/06/08 01:29:44;;;;;;;7.00;5.43;;;;;;;15.32;100.00;-14018.72;6244041;23;20211;-58
2023/06/08 01:32:11;;;;;;;6.17;5.63;;;;;;;15.37;100.00;-14981.28;6244748;23;20547;-57
2023/06/08 01:34:39;;;;;;;5.93;5.30;;;;;;;15.36;100.00;-14660.56;6244118;23;20168;-58
2023/06/08 01:37:13;;;;;;;8.63;5.23;;;;;;;15.47;100.00;-18189.16;6244361;23;20238;-58
2023/06/08 01:39:48;;;;;;;9.07;6.10;;;;;;;15.66;100.00;-17871.50;6244143;23;20164;-59
2023/06/08 01:42:19;;;;;;;6.30;5.60;;;;;;;15.67;100.00;-13703.91;6244204;23;20161;-59
2023/06/08 01:44:53;;;;;;;5.10;4.80;;;;;;;15.65;100.00;-14986.56;6244022;23;20164;-57
2023/06/08 01:47:24;;;;;;;5.50;4.90;;;;;;;15.64;100.00;-16589.28;6244404;23;20175;-59
2023/06/08 01:49:53;;;;;;;5.67;5.17;;;;;;;15.84;100.00;-17555.22;6244442;23;20168;-59
2023/06/08 01:52:21;;;;;;;4.93;4.63;;;;;;;15.93;100.00;-18198.34;6244318;23;20157;-58
2023/06/08 01:54:49;;;;;;;4.40;4.20;;;;;;;15.96;100.00;-18199.06;6244394;23;20160;-58
2023/06/08 01:57:16;;;;;;;6.00;5.50;;;;;;;15.95;100.00;-18198.69;6243904;23;20181;-58
2023/06/08 01:59:43;;;;;;;6.10;5.47;;;;;;;16.07;100.00;-17880.88;6243981;23;20161;-58
2023/06/08 02:02:10;;;;;;;15.27;6.37;;;;;;;16.11;100.00;-16278.38;6244436;23;20179;-58
2023/06/08 02:04:36;;;;;;;21.87;6.27;;;;;;;16.13;100.00;-13069.47;6244229;23;20173;-58
2023/06/08 02:07:04;;;;;;;9.57;5.83;;;;;;;16.10;100.00;-11784.44;6243862;23;20157;-59
2023/06/08 02:09:31;;;;;;;9.23;6.20;;;;;;;16.16;100.00;-11142.63;6244221;23;20596;-58
2023/06/08 02:12:10;;;;;;;12.70;7.87;;;;;;;16.16;100.00;-11142.63;6244340;23;20180;-59
2023/06/08 02:14:37;;;;;;;9.67;7.20;;;;;;;16.14;100.00;-11463.72;6244266;23;20609;-58
2023/06/08 02:17:05;;;;;;;15.47;8.43;;;;;;;16.10;100.00;-10820.66;6243818;23;20188;-58
2023/06/08 02:19:32;;;;;;;9.00;7.37;;;;;;;16.04;100.00;-10498.59;6244232;23;20161;-58
2023/06/08 02:22:00;;;;;;;12.40;6.80;;;;;;;15.87;100.00;-10175.50;6244235;23;20616;-58
2023/06/08 02:24:27;;;;;;;12.33;6.93;;;;;;;15.96;100.00;-8569.59;6244244;23;20235;-59
2023/06/08 02:26:54;;;;;;;7.67;6.60;;;;;;;15.64;100.00;-6638.56;6244228;23;20617;-57
2023/06/08 02:29:23;;;;;;;13.30;7.17;;;;;;;15.64;100.00;-8566.91;6244025;23;20199;-57
2023/06/08 02:31:50;;;;;;;12.40;7.30;;;;;;;15.47;100.00;-10492.09;6244405;23;20157;-59
2023/06/08 02:34:17;;;;;;;13.93;6.80;;;;;;;15.40;100.00;-12095.78;6244523;23;20539;-57
2023/06/08 02:36:47;;;;;;;52.03;9.70;;;;;;;15.11;100.00;-14015.09;6243697;23;20165;-58
2023/06/08 02:39:14;;;;;;;23.70;8.03;;;;;;;14.96;100.00;-14012.69;6244139;23;20160;-57
2023/06/08 02:41:41;;;;;;;13.63;7.50;;;;;;;14.96;100.00;-15614.31;6244003;23;20263;-57
2023/06/08 02:44:08;;;;;;;12.57;7.20;;;;;;;14.77;100.00;-18170.72;6245710;23;20275;-58
2023/06/08 02:46:38;;;;;;;21.03;7.87;;;;;;;14.69;100.00;-18168.69;6245989;23;20172;-59
2023/06/08 02:49:05;;;;;;;22.90;8.40;;;;;;;14.87;100.00;-18173.13;6246370;23;20495;-58
2023/06/08 02:51:32;;;;;;;15.33;7.67;;;;;;;15.01;100.00;-18176.50;6246040;23;20161;-58
2023/06/08 02:53:59;;;;;;;14.60;7.83;;;;;;;14.91;100.00;-17534.09;6246058;23;20596;-57
2023/06/08 02:56:27;;;;;;;15.43;8.60;;;;;;;14.89;100.00;-17213.59;6245736;23;20167;-58
2023/06/08 02:58:54;;;;;;;19.60;8.70;;;;;;;14.92;100.00;-17534.31;6245535;23;20184;-58
2023/06/08 03:01:21;;;;;;;19.03;8.87;;;;;;;14.96;100.00;-17535.22;6246008;23;20168;-59
2023/06/08 03:03:51;;;;;;;21.80;7.57;;;;;;;14.95;100.00;-17535.00;6245857;23;20161;-59
2023/06/08 03:06:19;;;;;;;16.70;8.23;;;;;;;14.97;100.00;-17535.47;6246025;23;20665;-58
2023/06/08 03:08:47;;;;;;;10.20;8.07;;;;;;;15.20;100.00;-18180.81;6245502;23;20243;-59
2023/06/08 03:11:15;;;;;;;15.70;8.20;;;;;;;15.45;100.00;-18186.94;6245774;23;20169;-57
2023/06/08 03:13:42;;;;;;;9.40;7.60;;;;;;;15.96;100.00;-17237.28;6245938;23;20157;-58
2023/06/08 03:16:08;;;;;;;13.93;8.03;;;;;;;16.59;100.00;-7931.22;6245910;23;20495;-58
2023/06/08 03:18:35;;;;;;;10.07;7.27;;;;;;;17.27;100.00;4977.03;6245747;23;20259;-58
2023/06/08 03:21:04;;;;;;;7.80;7.17;;;;;;;18.26;100.00;16674.28;6245766;23;20160;-59
2023/06/08 03:23:33;;;;;;;12.50;6.97;;;;;;;18.56;100.00;35603.84;6245779;23;20244;-58
2023/06/08 03:25:59;;;;;;;6.63;6.10;;;;;;;18.59;100.00;47732.59;6245748;23;20604;-58
2023/06/08 03:28:26;;;;;;;7.40;6.90;;;;;;;18.35;100.00;60536.44;6245840;23;20153;-58
2023/06/08 03:30:53;;;;;;;8.63;6.27;;;;;;;18.01;100.00;64455.03;6245325;23;20164;-59
2023/06/08 03:33:20;;;;;;;6.43;5.87;;;;;;;18.11;100.00;58208.00;6245498;23;20179;-59
2023/06/08 03:35:47;;;;;;;16.57;6.97;;;;;;;18.05;100.00;49984.78;6245427;23;20164;-59
2023/06/08 03:38:16;;;;;;;11.57;6.30;;;;;;;18.34;100.00;60535.91;6245815;23;20708;-59
2023/06/08 03:40:43;;;;;;;9.47;6.10;;;;;;;18.50;100.00;60222.56;6245628;23;20188;-59
2023/06/08 03:43:10;;;;;;;6.30;5.60;;;;;;;18.60;100.00;68812.13;6245689;23;20517;-57
2023/06/08 03:45:36;;;;;;;5.87;5.47;;;;;;;18.72;100.00;88710.72;6245086;23;20157;-58
2023/06/08 03:48:04;;;;;;;12.57;6.00;;;;;;;18.84;100.00;92719.50;6245677;23;20488;-58
2023/06/08 03:50:31;;;;;;;8.37;6.00;;;;;;;18.84;100.00;95383.81;6245138;23;20157;-59
2023/06/08 03:52:58;;;;;;;12.43;7.43;;;;;;;19.05;100.00;102421.81;6245459;23;20157;-59
2023/06/08 03:55:27;;;;;;;11.57;7.43;;;;;;;19.14;100.00;112803.03;6245545;23;20183;-60
2023/06/08 03:57:54;;;;;;;18.07;7.77;;;;;;;19.24;100.00;122885.19;6245445;23;20181;-58
2023/06/08 04:00:21;;;;;;;13.20;7.47;;;;;;;19.44;100.00;135381.66;6245824;23;20184;-60
2023/06/08 04:02:48;;;;;;;18.33;8.13;;;;;;;19.51;100.00;150941.28;6244901;23;20207;-60
2023/06/08 04:05:15;;;;;;;19.50;8.20;;;;;;;19.75;100.00;151001.09;6245379;23;20177;-59
2023/06/08 04:07:43;;;;;;;21.60;7.83;;;;;;;19.84;100.00;151024.00;6245611;23;20156;-59
2023/06/08 04:10:12;;;;;;;18.83;8.07;;;;;;;19.99;100.00;151062.19;6245178;23;20185;-58
2023/06/08 04:12:41;;;;;;;14.57;7.47;;;;;;;20.16;100.00;151105.47;6245199;23;20551;-58
2023/06/08 04:15:09;;;;;;;14.00;7.87;;;;;;;20.32;100.00;151146.31;6245294;23;20592;-58
2023/06/08 04:17:36;;;;;;;15.70;8.20;;;;;;;20.45;100.00;151179.38;6245043;23;20654;-59
2023/06/08 04:20:05;;;;;;;10.37;7.37;;;;;;;20.45;100.00;151178.13;6244867;23;20161;-58
2023/06/08 04:22:31;;;;;;;10.53;7.50;;;;;;;20.70;100.00;151241.81;6245071;23;20596;-59
2023/06/08 04:25:00;;;;;;;8.63;6.80;;;;;;;20.88;100.00;151287.63;6244799;23;20553;-59
2023/06/08 04:27:27;;;;;;;14.37;7.20;;;;;;;20.93;100.00;151299.09;6245350;23;20159;-60
2023/06/08 04:29:57;;;;;;;12.60;7.13;;;;;;;21.06;100.00;151332.22;6245232;23;20670;-59
2023/06/08 04:32:25;;;;;;;13.90;6.37;;;;;;;20.99;100.00;151314.41;6244781;23;20160;-59
2023/06/08 04:34:52;;;;;;;13.80;6.33;;;;;;;21.10;100.00;151342.41;6245175;23;20601;-58
2023/06/08 04:37:19;;;;;;;7.50;6.27;;;;;;;21.05;100.00;151329.66;6244896;23;20656;-58
2023/06/08 04:39:48;;;;;;;11.93;6.33;;;;;;;21.12;100.00;151347.59;6245029;23;20235;-58
2023/06/08 04:42:19;;;;;;;11.60;7.57;;;;;;;21.16;100.00;151356.50;6244473;23;20161;-58
2023/06/08 04:44:46;;;;;;;10.53;6.53;;;;;;;21.20;100.00;151367.97;6244664;23;20157;-59
2023/06/08 04:47:14;;;;;;;6.97;6.27;;;;;;;21.05;100.00;151329.66;6245373;23;20153;-60
2023/06/08 04:49:41;;;;;;;10.37;5.77;;;;;;;21.39;100.00;151416.38;6245029;23;20236;-60
2023/06/08 04:52:13;;;;;;;10.43;6.23;;;;;;;21.59;100.00;151466.09;6244908;23;20580;-59
2023/06/08 04:54:40;;;;;;;10.13;5.87;;;;;;;21.69;100.00;151491.56;6244793;23;20604;-58
2023/06/08 04:57:10;;;;;;;11.25;5.20;;;;;;;21.86;100.00;151534.91;6244545;23;20164;-59
2023/06/08 04:59:37;;;;;;;6.93;5.10;;;;;;;21.96;100.00;151557.91;6244338;23;20157;-59
2023/06/08 05:02:05;;;;;;;16.10;5.63;;;;;;;22.24;100.00;151630.56;6244768;23;20227;-59
2023/06/08 05:04:33;;;;;;;5.82;5.10;;;;;;;22.32;100.00;151649.69;6244282;23;20175;-59
2023/06/08 05:07:01;;;;;;;8.63;4.97;;;;;;;22.46;100.00;151684.13;6244345;23;20195;-58
2023/06/08 05:09:28;;;;;;;8.85;4.32;;;;;;;22.53;100.00;151702.00;6244531;23;20153;-58
2023/06/08 05:11:55;;;;;;;7.28;4.85;;;;;;;22.77;100.00;151764.53;6244726;23;20183;-59
2023/06/08 05:14:22;;;;;;;7.57;4.90;;;;;;;22.93;100.00;151804.06;6244279;23;20168;-59
2023/06/08 05:16:49;;;;;;;12.20;5.15;;;;;;;23.12;100.00;151852.56;6244136;23;20157;-59
2023/06/08 05:19:17;;;;;;;5.38;4.55;;;;;;;23.42;100.00;151927.84;6217883;23;20489;-58
2023/06/08 05:21:45;;;;;;;17.15;5.15;;;;;;;23.56;100.00;151962.31;6244074;23;20167;-59
2023/06/08 05:24:12;;;;;;;11.32;5.05;;;;;;;23.59;100.00;151970.03;6244403;23;20161;-59
2023/06/08 05:26:41;;;;;;;7.75;4.90;;;;;;;23.65;100.00;151985.31;6243994;23;20496;-59
2023/06/08 05:29:09;;;;;;;14.20;5.13;;;;;;;23.87;100.00;152040.19;6244240;23;20638;-60
2023/06/08 05:31:36;;;;;;;8.70;4.57;;;;;;;24.15;100.00;152111.72;6243905;23;20204;-59
2023/06/08 05:34:02;;;;;;;5.07;4.40;;;;;;;24.33;100.00;152157.69;6244078;23;20214;-59
2023/06/08 05:36:29;;;;;;;10.90;5.20;;;;;;;24.04;100.00;152084.88;6217456;23;20243;-59
2023/06/08 05:39:03;;;;;;;13.52;3.90;;;;;;;24.07;100.00;152092.53;6243747;23;20177;-59
2023/06/08 05:41:30;;;;;;;5.85;3.92;;;;;;;24.20;100.00;152123.22;6244084;23;20168;-59
2023/06/08 05:43:57;;;;;;;4.60;4.20;;;;;;;24.01;100.00;152075.97;6243673;23;20203;-59
2023/06/08 05:46:24;;;;;;;4.38;3.60;;;;;;;24.28;100.00;152144.91;6243938;23;20163;-59
2023/06/08 05:48:50;;;;;;;17.75;5.40;;;;;;;24.44;100.00;152184.53;6243711;23;20235;-60
2023/06/08 05:51:17;;;;;;;4.90;3.75;;;;;;;24.58;100.00;152221.53;6243693;23;20163;-58
2023/06/08 05:53:44;;;;;;;7.25;3.75;;;;;;;24.69;100.00;152248.38;6243747;23;20157;-58
2023/06/08 05:56:13;;;;;;;3.53;3.30;;;;;;;24.96;100.00;152316.09;6243924;23;20192;-60
2023/06/08 05:58:40;;;;;;;3.17;2.90;;;;;;;25.05;100.00;152337.81;6243515;23;20272;-58
2023/06/08 06:01:09;;;;;;;4.38;2.58;;;;;;;24.78;100.00;152271.34;6244233;23;20592;-58
2023/06/08 06:03:36;;;;;;;4.75;1.85;;;;;;;23.84;100.00;152033.84;6243464;23;20196;-58
2023/06/08 06:06:03;;;;;;;2.63;2.08;;;;;;;23.88;100.00;152044.03;6244315;23;20256;-58
2023/06/08 06:08:30;;;;;;;3.85;2.25;;;;;;;24.14;100.00;152110.38;6243964;23;20163;-59
2023/06/08 06:10:57;;;;;;;2.88;1.88;;;;;;;23.36;100.00;151912.53;6245054;23;20161;-58
2023/06/08 06:13:26;;;;;;;2.35;2.00;;;;;;;23.47;100.00;151939.34;6244776;23;20533;-57
2023/06/08 06:15:54;;;;;;;1.85;1.75;;;;;;;23.43;100.00;151929.09;6244502;23;20537;-58
2023/06/08 06:18:20;;;;;;;1.80;1.70;;;;;;;23.57;100.00;151966.19;6246486;23;20478;-58
2023/06/08 06:20:47;;;;;;;3.00;2.40;;;;;;;24.43;100.00;152183.25;6245649;23;20157;-58
2023/06/08 06:23:14;;;;;;;1.75;1.70;;;;;;;24.65;92.65;152236.88;6246233;23;20157;-58
2023/06/08 06:25:41;;;;;;;2.30;2.10;;;;;;;24.76;94.64;152266.25;6246225;23;20163;-59
2023/06/08 06:28:08;;;;;;;2.50;1.90;;;;;;;24.81;92.52;152279.03;6245751;23;20152;-59
2023/06/08 06:30:37;;;;;;;2.47;2.10;;;;;;;24.84;91.14;152286.69;6245742;23;20163;-59
2023/06/08 06:33:04;;;;;;;4.18;2.13;;;;;;;25.19;88.82;152374.88;6245964;23;20157;-58
2023/06/08 06:35:31;;;;;;;2.60;1.80;;;;;;;25.55;83.36;152465.63;6245572;23;20163;-59
2023/06/08 06:38:00;;;;;;;4.45;2.00;;;;;;;25.73;83.55;152511.66;6246438;23;20487;-60
2023/06/08 06:40:27;;;;;;;2.88;2.40;;;;;;;24.89;80.71;152299.50;6245948;23;20245;-58
2023/06/08 06:42:54;;;;;;;1.90;1.80;;;;;;;24.95;85.61;152313.59;6245639;23;20222;-59
2023/06/08 06:45:21;;;;;;;7.57;2.10;;;;;;;25.34;79.78;152411.91;6246394;23;20161;-58
2023/06/08 06:47:50;;;;;;;2.55;2.15;;;;;;;24.70;77.27;152250.91;6247672;23;20560;-57
2023/06/08 06:50:17;;;;;;;4.32;2.10;;;;;;;24.55;82.61;152213.91;6245509;23;20157;-56
2023/06/08 06:52:45;;;;;;;1.58;1.48;;;;;;;24.39;85.13;152171.75;6245678;23;20638;-57
2023/06/08 06:55:11;;;;;;;4.20;2.38;;;;;;;24.71;87.19;152253.47;6246105;23;20157;-56
2023/06/08 06:57:40;;;;;;;2.35;2.20;;;;;;;25.27;82.77;152394.03;6245310;23;20168;-55
2023/06/08 07:00:10;;;;;;;2.38;2.17;;;;;;;25.12;84.16;152356.97;6244937;23;20215;-57
2023/06/08 07:02:37;;;;;;;2.90;1.95;;;;;;;24.64;81.33;152235.59;6245598;23;20592;-57
2023/06/08 07:05:08;;;;;;;2.25;1.70;;;;;;;23.81;94.32;152026.13;6245602;23;20180;-57
2023/06/08 07:07:35;;;;;;;1.85;1.75;;;;;;;23.87;92.48;152041.47;6245389;23;20239;-58
2023/06/08 07:10:02;;;;;;;5.60;2.03;;;;;;;23.97;99.38;152067.03;6245405;23;20160;-57
2023/06/08 07:12:29;;;;;;;1.95;1.85;;;;;;;24.07;100.00;152092.53;6245381;23;20168;-57
2023/06/08 07:14:56;;;;;;;2.00;1.80;;;;;;;24.39;100.00;152171.75;6246104;23;20176;-57
2023/06/08 07:17:23;;;;;;;2.63;2.53;;;;;;;24.12;100.00;152104.03;6245253;23;20160;-58
2023/06/08 07:19:52;;;;;;;2.53;2.28;;;;;;;24.13;100.00;152107.88;6244977;23;20226;-58
2023/06/08 07:22:21;;;;;;;2.65;1.92;;;;;;;24.30;100.00;152150.06;6245776;23;20576;-58
2023/06/08 07:24:48;;;;;;;3.38;2.00;;;;;;;24.43;100.00;152183.25;6245498;23;20236;-58
2023/06/08 07:27:15;;;;;;;2.30;2.20;;;;;;;24.45;97.96;152187.06;6244966;23;20163;-58
2023/06/08 07:29:42;;;;;;;1.85;1.75;;;;;;;24.39;100.00;152171.75;6244580;23;20244;-57
2023/06/08 07:32:11;;;;;;;2.00;1.90;;;;;;;24.18;100.00;152118.13;6245351;23;20320;-57
2023/06/08 07:34:38;;;;;;;4.57;2.65;;;;;;;24.37;100.00;152166.63;6245355;23;20156;-57
2023/06/08 07:37:06;;;;;;;2.75;2.55;;;;;;;24.26;100.00;152138.56;6245389;23;20179;-57
2023/06/08 07:39:34;;;;;;;2.40;2.30;;;;;;;24.14;100.00;152110.38;6245163;23;20581;-57
2023/06/08 07:42:02;;;;;;;8.15;2.67;;;;;;;24.10;100.00;152100.16;6244867;23;20163;-56
2023/06/08 07:44:29;;;;;;;2.90;2.45;;;;;;;24.08;100.00;152093.81;6245567;23;20204;-56
2023/06/08 07:46:56;;;;;;;2.88;2.10;;;;;;;23.98;100.00;152069.53;6245363;23;20160;-56
2023/06/08 07:49:23;;;;;;;2.50;2.40;;;;;;;24.02;100.00;152079.75;6244863;23;20244;-57
2023/06/08 07:51:54;;;;;;;5.32;4.00;;;;;;;24.23;99.04;152132.16;6245192;23;20241;-57
2023/06/08 07:54:21;;;;;;;2.55;2.13;;;;;;;24.38;97.46;152169.19;6244769;23;20165;-57
2023/06/08 07:56:50;;;;;;;2.40;2.30;;;;;;;24.53;95.79;152207.47;6244841;23;20165;-58
2023/06/08 07:59:17;;;;;;;3.97;2.70;;;;;;;24.63;95.81;152233.03;6245041;23;20185;-59
2023/06/08 08:01:44;;;;;;;2.15;1.75;;;;;;;24.39;97.21;152171.75;6244691;23;20244;-56
2023/06/08 08:04:11;;;;;;;2.30;2.20;;;;;;;24.36;95.61;152165.34;6244455;23;20174;-57
2023/06/08 08:06:38;;;;;;;2.70;1.95;;;;;;;24.07;100.00;152091.25;6245756;23;20219;-57
2023/06/08 08:09:05;;;;;;;4.00;2.50;;;;;;;24.34;92.97;152160.25;6244741;23;20154;-56
2023/06/08 08:11:32;;;;;;;2.30;2.10;;;;;;;24.53;92.14;152208.75;6245449;23;20195;-57
2023/06/08 08:14:01;;;;;;;4.13;2.13;;;;;;;24.37;93.71;152166.63;6244708;23;20622;-57
2023/06/08 08:16:28;;;;;;;3.38;1.92;;;;;;;24.10;97.80;152100.16;6244341;23;20219;-56
2023/06/08 08:18:55;;;;;;;1.80;1.80;;;;;;;24.43;94.26;152183.25;6244374;23;20524;-56
2023/06/08 08:21:21;;;;;;;2.50;2.30;;;;;;;24.45;95.64;152188.34;6244357;23;20161;-57
2023/06/08 08:23:49;;;;;;;2.78;2.30;;;;;;;24.47;95.36;152192.19;6245112;23;20160;-56
2023/06/08 08:26:16;;;;;;;2.10;1.95;;;;;;;24.20;92.29;152123.22;6244780;23;20606;-57
2023/06/08 08:28:44;;;;;;;2.88;2.10;;;;;;;24.37;92.37;152166.63;6244545;23;20153;-58
2023/06/08 08:31:13;;;;;;;2.22;2.13;;;;;;;24.30;94.46;152148.75;6244368;23;20196;-56
2023/06/08 08:33:40;;;;;;;2.13;2.03;;;;;;;24.23;95.74;152130.91;6244960;23;20212;-56
2023/06/08 08:36:07;;;;;;;2.13;2.03;;;;;;;24.72;91.24;152256.03;6244514;23;20168;-56
2023/06/08 08:38:34;;;;;;;5.75;2.17;;;;;;;24.61;92.27;152227.97;6244686;23;20156;-56
2023/06/08 08:41:11;;;;;;;5.25;2.10;;;;;;;24.94;92.71;152311.00;6244212;23;20157;-56
2023/06/08 08:43:46;;;;;;;2.53;2.33;;;;;;;24.94;84.85;152311.00;6245352;23;20231;-63
2023/06/08 08:46:16;;;;;;;2.13;2.03;;;;;;;25.08;84.30;152346.75;6244764;23;20156;-63
2023/06/08 08:48:43;;;;;;;1.70;1.60;;;;;;;24.40;87.83;152175.56;6244721;23;20163;-63
2023/06/08 08:51:19;;;;;;;2.20;2.10;;;;;;;24.93;84.78;152309.72;6244334;23;20236;-62
2023/06/08 08:53:47;;;;;;;4.05;2.08;;;;;;;25.06;83.59;152340.38;6244590;23;20551;-62
2023/06/08 08:56:17;;;;;;;5.13;2.30;;;;;;;25.04;85.26;152336.53;6244412;23;20157;-63
2023/06/08 08:58:46;;;;;;;2.22;2.13;;;;;;;25.00;85.10;152327.59;6244652;23;20243;-62
2023/06/08 09:01:16;;;;;;;4.72;2.10;;;;;;;25.17;82.36;152368.47;6244656;23;20245;-62
2023/06/08 09:03:43;;;;;;;1.88;1.77;;;;;;;25.03;83.90;152334.00;6244633;23;20664;-63
2023/06/08 09:06:09;;;;;;;2.38;2.17;;;;;;;24.65;94.33;152238.16;6245110;23;20179;-63
2023/06/08 09:08:36;;;;;;;4.00;2.13;;;;;;;24.19;98.95;152121.94;6244536;23;20192;-63
2023/06/08 09:11:05;;;;;;;4.93;2.67;;;;;;;24.27;99.24;152141.13;6243889;23;20358;-63
2023/06/08 09:13:33;;;;;;;3.30;2.30;;;;;;;24.41;94.82;152176.84;6245337;23;20164;-62
2023/06/08 09:16:09;;;;;;;2.63;2.10;;;;;;;24.40;97.12;152174.31;6244809;23;20600;-63
2023/06/08 09:18:38;;;;;;;2.85;2.63;;;;;;;24.37;98.07;152166.63;6244841;23;20225;-61
2023/06/08 09:21:20;;;;;;;3.25;2.33;;;;;;;24.32;97.95;152155.13;6244512;23;20200;-63
2023/06/08 09:24:03;;;;;;;2.30;2.10;;;;;;;24.07;98.38;152091.25;6244350;23;20157;-62
2023/06/08 09:26:32;;;;;;;2.38;2.13;;;;;;;23.97;100.00;152067.03;6244057;23;20234;-63
2023/06/08 09:29:01;;;;;;;3.95;2.30;;;;;;;23.99;100.00;152070.81;6244238;23;20161;-61
2023/06/08 09:31:29;;;;;;;2.35;2.15;;;;;;;23.88;100.00;152044.03;6243885;23;20199;-61
2023/06/08 09:34:06;;;;;;;3.03;2.00;;;;;;;23.95;96.91;152061.91;6244128;23;20192;-61
2023/06/08 09:36:37;;;;;;;4.95;1.80;;;;;;;24.19;97.66;152120.69;6244124;23;20240;-62
2023/06/08 09:39:05;;;;;;;9.98;2.10;;;;;;;24.27;99.54;152141.13;6244540;23;20180;-61
2023/06/08 09:41:33;;;;;;;2.45;2.35;;;;;;;24.43;97.85;152181.97;6243694;23;20164;-61
2023/06/08 09:44:00;;;;;;;4.20;2.28;;;;;;;24.65;95.88;152238.16;6243685;23;20205;-62
2023/06/08 09:46:36;;;;;;;5.43;2.42;;;;;;;24.89;96.44;152298.22;6244476;23;20157;-62
2023/06/08 09:49:07;;;;;;;18.10;3.63;;;;;;;25.10;93.67;152350.59;6243646;23;20152;-64
2023/06/08 09:51:36;;;;;;;5.63;2.47;;;;;;;25.56;89.27;152466.91;6243755;23;20577;-61
2023/06/08 09:54:04;;;;;;;2.47;1.92;;;;;;;25.81;86.65;152530.81;6244212;23;20156;-61
2023/06/08 09:56:32;;;;;;;4.63;2.10;;;;;;;25.79;89.41;152527.00;6243549;23;20236;-61
2023/06/08 09:59:06;;;;;;;8.25;7.50;;;;;;;25.39;94.26;152424.69;6243769;23;20635;-61
2023/06/08 10:01:38;;;;;;;7.68;3.78;;;;;;;25.29;95.64;152399.19;6243696;23;20160;-61
2023/06/08 10:04:15;;;;;;;2.30;2.20;;;;;;;25.26;93.74;152391.47;6243741;23;20226;-62
2023/06/08 10:06:45;;;;;;;7.55;2.53;;;;;;;25.55;94.72;152465.63;6243961;23;20188;-62
2023/06/08 10:09:15;;;;;;;5.28;2.47;;;;;;;25.31;96.01;152404.25;6243618;23;20622;-62
2023/06/08 10:11:43;;;;;;;2.65;2.55;;;;;;;24.83;97.76;152282.84;6243524;23;20240;-62
2023/06/08 10:14:12;;;;;;;2.55;2.45;;;;;;;24.96;97.95;152317.38;6243951;23;20639;-61
2023/06/08 10:16:40;;;;;;;2.97;2.30;;;;;;;24.85;100.00;152289.31;6244001;23;20193;-61
2023/06/08 10:19:09;;;;;;;2.38;2.28;;;;;;;24.92;100.00;152305.88;6243491;23;20167;-62
2023/06/08 10:21:37;;;;;;;2.58;2.38;;;;;;;24.70;100.00;152250.91;6243570;23;20248;-62
2023/06/08 10:24:05;;;;;;;4.60;2.70;;;;;;;24.65;98.21;152238.16;6243771;23;20157;-62
2023/06/08 10:26:32;;;;;;;4.28;2.17;;;;;;;24.65;97.68;152238.16;6244173;23;20547;-61
2023/06/08 10:29:08;;;;;;;3.03;2.65;;;;;;;24.54;99.22;152211.31;6243374;23;20219;-62
2023/06/08 10:31:39;;;;;;;3.38;2.30;;;;;;;24.64;96.98;152235.59;6243757;23;20160;-63
2023/06/08 10:34:10;;;;;;;2.40;2.30;;;;;;;24.50;97.78;152201.13;6243742;23;20160;-62
2023/06/08 10:36:39;;;;;;;2.70;2.50;;;;;;;24.26;98.36;152138.56;6243887;23;20545;-62
2023/06/08 10:39:10;;;;;;;2.80;2.60;;;;;;;24.48;93.77;152194.75;6243890;23;20160;-61
2023/06/08 10:41:39;;;;;;;2.63;2.42;;;;;;;24.35;96.70;152161.53;6243480;23;20157;-62
2023/06/08 10:44:07;;;;;;;2.17;2.08;;;;;;;24.46;95.24;152189.63;6243647;23;20197;-62
2023/06/08 10:46:43;;;;;;;2.97;2.40;;;;;;;24.36;94.45;152164.06;6244239;23;20492;-63
2023/06/08 10:49:12;;;;;;;3.80;2.42;;;;;;;24.24;100.00;152133.44;6243730;23;20152;-62
2023/06/08 10:51:43;;;;;;;2.58;2.45;;;;;;;24.27;100.00;152141.13;6243785;23;20161;-62
2023/06/08 10:54:21;;;;;;;2.35;2.25;;;;;;;24.11;100.00;152101.47;6244626;23;20153;-61
2023/06/08 10:56:52;;;;;;;2.60;2.40;;;;;;;24.18;100.00;152118.13;6244560;23;20485;-62
2023/06/08 10:59:23;;;;;;;3.05;1.92;;;;;;;24.07;100.00;152091.25;6243752;23;20244;-63
2023/06/08 11:01:51;;;;;;;4.38;2.38;;;;;;;24.03;100.00;152082.31;6243955;23;20160;-61
2023/06/08 11:04:21;;;;;;;6.25;3.00;;;;;;;23.88;100.00;152044.03;6245142;23;20218;-61
2023/06/08 11:06:48;;;;;;;3.42;2.95;;;;;;;24.04;100.00;152084.88;6245408;23;20240;-61
2023/06/08 11:09:16;;;;;;;2.42;2.20;;;;;;;23.79;100.00;152021.06;6245931;23;20157;-62
2023/06/08 11:11:52;;;;;;;4.97;2.60;;;;;;;24.02;100.00;152078.47;6245255;23;20231;-62
2023/06/08 11:14:22;;;;;;;2.75;2.28;;;;;;;24.04;100.00;152084.88;6245932;23;20161;-63
2023/06/08 11:16:53;;;;;;;2.83;2.60;;;;;;;24.02;100.00;152079.75;6248282;23;20214;-63
2023/06/08 11:19:21;;;;;;;5.63;2.58;;;;;;;24.08;100.00;152095.09;6245942;23;20481;-61
2023/06/08 11:21:53;;;;;;;2.83;2.63;;;;;;;24.07;100.00;152091.25;6246333;23;20483;-62
2023/06/08 11:24:21;;;;;;;3.67;2.47;;;;;;;23.82;100.00;152028.69;6246272;23;20165;-62
2023/06/08 11:26:48;;;;;;;2.50;2.30;;;;;;;23.80;100.00;152022.34;6245131;23;20157;-64